Hita, Japan

3:30 PM JST on April 01, 2015 (GMT +0900)
Kumamoto | | Change Station
CLOSE
Current Station
Airport
Location: Kumamoto,
Elevation: 643 ft
Nearby Weather Stations

Elev 643 ft 32.84 °N, 130.86 °E | Updated 12 minutes ago

Light Rain Showers
Light Showers Rain Mist
70 °F
Feels Like 70 °F
N
9
Wind Variable Wind from WSW

Today
High -- | Low -- °F
--% Chance of Precip.
Yesterday
High -- | Low -- °F
Precip. -- in
6:05 AM 6:36 PM
Waxing Gibbous, 91% visible
Pressure 29.86 in
Visibility 2.5 miles
Clouds Few 500 ft
Mostly Cloudy 1000 ft
Mostly Cloudy 1500 ft
Dew Point 64 °F
Humidity 83%
Rainfall 0.00 in
Snow Depth Not available.
UV 3 out of 12
Pollen Not available.
Air Quality Not available.
Flu Activity Not available.
SPECI RJFT 010618Z 25008KT 4000 -SHRA BR FEW005 BKN010 BKN015 21/18 Q1011 RMK 1ST005 5ST010 6CU015 A2988

More Conditions Fewer Conditions

Pressure 29.86 in
Visibility 2.5 miles
Clouds Few 500 ft
Mostly Cloudy 1000 ft
Mostly Cloudy 1500 ft
Dew Point 64 °F
Humidity 83%
Rainfall 0.00 in
Snow Depth Not available.
UV 3 out of 12
Pollen Not available.
Air Quality Not available.
Flu Activity Not available.
SPECI RJFT 010618Z 25008KT 4000 -SHRA BR FEW005 BKN010 BKN015 21/18 Q1011 RMK 1ST005 5ST010 6CU015 A2988

More Conditions Fewer Conditions

10-Day Weather Forecast

Almanac

Astronomy

Apr. 01, 2015 Rise Set
Actual Time
Civil Twilight
Nautical Twilight
Astronomical Twilight
Moon
Length of Visible Light
Length of Day
Tomorrow will be .
, % of the Moon is Illuminated

Today's Extremes

Country Highs Country Lows

Community

WunderPhotos

Upload Photos

1,809,924 photos uploaded!

WunderBlogs® & News

Nearby

Air Quality

  Air Quality AQ Index Pollutant
Not available.

Snow Depth

Station Depth Elevation

Earthquake Activity

City Distance Mag. Time & Date
Minimum magnitude displayed is 2.5.

Coastal Water Temperatures

Place Temperature

Stations

Nearby Weather Stations

Station Location Temp. Windchill Dew Point Humidity Wind Precip. Elev Updated Type